createdAt,value
2018-07-11T00:00:45.971Z,13.52
2018-07-11T00:05:41.582Z,13.52
2018-07-11T00:10:38.503Z,13.54
2018-07-11T00:15:35.109Z,13.56
2018-07-11T00:20:31.645Z,13.72
2018-07-11T00:25:27.420Z,13.68
2018-07-11T00:30:23.251Z,13.67
2018-07-11T00:35:19.015Z,13.68
2018-07-11T00:40:15.909Z,13.79
2018-07-11T00:45:11.197Z,13.86
2018-07-11T00:50:07.310Z,13.95
2018-07-11T00:55:03.527Z,13.90
2018-07-11T01:00:00.402Z,13.93
2018-07-11T01:04:55.851Z,14.00
2018-07-11T01:09:52.903Z,14.10
2018-07-11T01:14:48.495Z,14.18
2018-07-11T01:19:44.671Z,14.29
2018-07-11T01:24:40.498Z,14.26
2018-07-11T01:29:37.784Z,14.33
2018-07-11T01:34:33.132Z,14.28
2018-07-11T01:39:28.736Z,14.12
2018-07-11T01:44:24.502Z,13.96
2018-07-11T01:49:21.553Z,13.92
2018-07-11T01:54:18.028Z,13.87
2018-07-11T01:59:14.388Z,13.79
2018-07-11T02:04:10.738Z,13.83
2018-07-11T02:09:06.202Z,13.81
2018-07-11T02:14:02.900Z,13.60
2018-07-11T02:18:58.705Z,13.62
2018-07-11T02:23:55.636Z,13.39
2018-07-11T02:28:51.035Z,13.44
2018-07-11T02:33:46.710Z,13.25
2018-07-11T02:38:42.923Z,13.27
2018-07-11T02:43:38.667Z,13.27
2018-07-11T02:48:34.464Z,13.31
2018-07-11T02:53:30.495Z,13.23
2018-07-11T02:58:26.715Z,13.22
2018-07-11T03:03:23.675Z,13.09
2018-07-11T03:08:19.195Z,13.09
2018-07-11T03:13:14.858Z,12.98
2018-07-11T03:18:10.915Z,12.98
2018-07-11T03:23:07.729Z,13.05
2018-07-11T03:28:03.826Z,13.12
2018-07-11T03:32:59.667Z,13.00
2018-07-11T03:37:56.162Z,12.93
2018-07-11T03:42:51.920Z,12.85
2018-07-11T03:47:47.538Z,12.97
2018-07-11T03:52:43.261Z,12.98
2018-07-11T03:57:38.922Z,13.03
2018-07-11T04:02:34.841Z,13.00
2018-07-11T04:07:31.160Z,13.03
2018-07-11T04:12:27.546Z,13.00
2018-07-11T04:17:25.547Z,13.08
2018-07-11T04:22:21.698Z,13.19
2018-07-11T04:27:18.110Z,13.11
2018-07-11T04:32:13.840Z,13.15
2018-07-11T04:37:10.601Z,13.15
2018-07-11T04:42:08.477Z,13.20
2018-07-11T04:47:05.029Z,13.25
2018-07-11T04:52:00.548Z,13.35
2018-07-11T04:56:59.243Z,13.35
2018-07-11T05:01:54.550Z,13.30
2018-07-11T05:06:51.370Z,13.49
2018-07-11T05:11:47.110Z,13.54
2018-07-11T05:16:47.087Z,14.25
2018-07-11T05:21:44.749Z,15.76
2018-07-11T05:26:42.962Z,17.14
2018-07-11T05:31:40.484Z,18.08
2018-07-11T05:36:36.639Z,18.33
2018-07-11T05:41:36.807Z,17.94
2018-07-11T05:46:33.349Z,18.88
2018-07-11T05:51:30.173Z,18.99
2018-07-11T05:56:25.289Z,17.95
2018-07-11T06:01:20.355Z,17.24
2018-07-11T06:06:15.480Z,16.69
2018-07-11T06:11:11.074Z,16.56
2018-07-11T06:16:07.246Z,16.39
2018-07-11T06:21:03.723Z,16.13
2018-07-11T06:26:00.071Z,15.97
2018-07-11T06:30:56.427Z,16.05
2018-07-11T06:35:54.955Z,16.16
2018-07-11T06:40:50.734Z,16.39
2018-07-11T06:45:47.347Z,16.64
2018-07-11T06:50:43.552Z,17.12
2018-07-11T06:55:40.325Z,17.54
2018-07-11T07:00:36.467Z,17.48
2018-07-11T07:05:33.591Z,17.74
2018-07-11T07:15:35.440Z,18.29
2018-07-11T07:20:33.793Z,18.45
2018-07-11T07:25:29.857Z,18.75
2018-07-11T07:35:28.682Z,18.40
2018-07-11T07:40:23.775Z,18.29
2018-07-11T07:45:19.217Z,18.01
2018-07-11T07:50:15.815Z,17.97
2018-07-11T07:55:12.363Z,18.28
2018-07-11T08:05:09.242Z,18.47
2018-07-11T08:15:05.307Z,18.52
2018-07-11T08:20:02.202Z,18.80
2018-07-11T08:24:58.179Z,18.92
2018-07-11T08:29:54.280Z,19.11
2018-07-11T08:39:50.466Z,18.92
2018-07-11T08:44:46.002Z,18.77
2018-07-11T08:49:41.590Z,18.70
2018-07-11T08:54:37.462Z,18.71
2018-07-11T08:59:34.351Z,18.83
2018-07-11T09:04:31.353Z,18.80
2018-07-11T09:09:28.118Z,18.71
2018-07-11T09:14:23.724Z,18.65
2018-07-11T09:19:19.147Z,18.52
2018-07-11T09:24:15.798Z,18.50
2018-07-11T09:44:21.612Z,19.37
2018-07-11T09:54:18.180Z,19.62
2018-07-11T09:59:16.730Z,19.88
2018-07-11T10:04:11.914Z,19.84
2018-07-11T10:09:08.752Z,19.76
2018-07-11T10:14:04.009Z,19.71
2018-07-11T10:18:59.569Z,19.59
2018-07-11T10:23:55.423Z,19.41
2018-07-11T10:28:51.306Z,19.59
2018-07-11T10:33:48.161Z,19.77
2018-07-11T10:38:43.881Z,19.74
2018-07-11T10:43:39.600Z,19.71
2018-07-11T10:48:35.928Z,19.91
2018-07-11T10:53:32.012Z,20.21
2018-07-11T10:58:28.111Z,20.24
2018-07-11T11:03:24.875Z,20.02
2018-07-11T11:08:20.272Z,19.70
2018-07-11T11:13:16.316Z,19.58
2018-07-11T11:18:11.659Z,19.11
2018-07-11T11:23:07.412Z,18.92
2018-07-11T11:28:03.817Z,18.66
2018-07-11T11:32:58.948Z,18.45
2018-07-11T11:37:54.891Z,18.29
2018-07-11T11:42:51.724Z,18.18
2018-07-11T11:47:47.608Z,18.01
2018-07-11T11:52:43.679Z,18.11
2018-07-11T11:57:40.714Z,18.10
2018-07-11T12:02:37.302Z,18.31
2018-07-11T12:07:33.392Z,18.43
2018-07-11T12:12:30.702Z,18.41
2018-07-11T12:17:26.149Z,18.58
2018-07-11T12:22:21.999Z,18.47
2018-07-11T12:27:17.964Z,18.50
2018-07-11T12:32:13.805Z,18.58
2018-07-11T12:37:10.358Z,18.80
2018-07-11T12:42:07.393Z,18.90
2018-07-11T12:47:03.557Z,18.99
2018-07-11T12:52:00.769Z,18.93
2018-07-11T12:56:56.116Z,18.98
2018-07-11T13:01:52.614Z,18.92
2018-07-11T13:06:47.861Z,18.70
2018-07-11T13:11:43.308Z,18.55
2018-07-11T13:16:38.699Z,18.55
2018-07-11T13:21:34.840Z,18.23
2018-07-11T13:26:30.768Z,18.20
2018-07-11T13:31:27.779Z,18.04
2018-07-11T13:36:23.368Z,18.03
2018-07-11T13:41:19.260Z,18.16
2018-07-11T13:46:16.687Z,18.41
2018-07-11T13:51:13.591Z,18.78
2018-07-11T13:56:09.827Z,19.12
2018-07-11T14:01:07.185Z,19.27
2018-07-11T14:06:03.336Z,19.48
2018-07-11T14:10:59.455Z,19.74
2018-07-11T14:15:55.291Z,19.81
2018-07-11T14:20:52.459Z,20.07
2018-07-11T14:25:48.152Z,20.18
2018-07-11T14:30:44.496Z,20.47
2018-07-11T14:35:40.454Z,20.36
2018-07-11T14:40:36.231Z,20.31
2018-07-11T14:45:32.148Z,20.29
2018-07-11T14:50:28.796Z,20.28
2018-07-11T14:55:24.218Z,20.14
2018-07-11T15:00:20.047Z,20.06
2018-07-11T15:05:16.067Z,20.24
2018-07-11T15:10:12.347Z,20.39
2018-07-11T15:15:08.788Z,20.55
2018-07-11T15:20:05.771Z,20.36
2018-07-11T15:25:00.881Z,20.18
2018-07-11T15:29:56.341Z,19.95
2018-07-11T15:34:52.973Z,19.84
2018-07-11T15:39:48.643Z,19.86
2018-07-11T15:44:45.179Z,19.74
2018-07-11T15:49:40.806Z,19.77
2018-07-11T15:54:36.581Z,19.64
2018-07-11T15:59:32.396Z,19.64
2018-07-11T16:04:29.288Z,19.58
2018-07-11T16:09:24.764Z,19.64
2018-07-11T16:14:20.620Z,19.59
2018-07-11T16:19:17.523Z,19.56
2018-07-11T16:24:14.166Z,19.62
2018-07-11T16:29:10.196Z,19.59
2018-07-11T16:34:06.249Z,19.49
2018-07-11T16:39:01.920Z,19.44
2018-07-11T16:43:57.719Z,18.95
2018-07-11T16:48:53.496Z,18.66
2018-07-11T16:53:50.249Z,18.56
2018-07-11T16:58:45.516Z,18.58
2018-07-11T17:03:41.326Z,18.58
2018-07-11T17:08:37.816Z,18.53
2018-07-11T17:13:33.248Z,18.52
2018-07-11T17:18:29.102Z,18.38
2018-07-11T17:23:24.839Z,18.26
2018-07-11T17:28:20.496Z,18.18
2018-07-11T17:33:16.921Z,18.20
2018-07-11T17:38:12.685Z,18.20
2018-07-11T17:43:08.641Z,18.20
2018-07-11T17:48:04.366Z,18.28
2018-07-11T17:53:00.397Z,18.29
2018-07-11T17:57:56.210Z,18.33
2018-07-11T18:02:51.958Z,18.40
2018-07-11T18:07:48.943Z,18.35
2018-07-11T18:12:45.328Z,18.29
2018-07-11T18:17:41.618Z,18.53
2018-07-11T18:22:37.287Z,18.43
2018-07-11T18:27:33.818Z,18.49
2018-07-11T18:32:29.578Z,18.41
2018-07-11T18:37:26.425Z,18.41
2018-07-11T18:42:22.086Z,18.47
2018-07-11T18:47:17.831Z,18.52
2018-07-11T18:52:13.651Z,18.47
2018-07-11T18:57:09.295Z,18.45
2018-07-11T19:02:05.248Z,18.45
2018-07-11T19:07:01.828Z,18.37
2018-07-11T19:11:57.408Z,18.31
2018-07-11T19:16:53.095Z,18.15
2018-07-11T19:21:48.565Z,18.08
2018-07-11T19:26:44.571Z,18.07
2018-07-11T19:31:40.638Z,18.07
2018-07-11T19:36:36.306Z,18.05
2018-07-11T19:41:32.498Z,18.05
2018-07-11T19:46:28.144Z,18.11
2018-07-11T19:51:25.174Z,18.11
2018-07-11T19:56:20.673Z,18.13
2018-07-11T20:01:17.320Z,18.10
2018-07-11T20:06:12.759Z,17.92
2018-07-11T20:11:08.846Z,17.98
2018-07-11T20:16:05.578Z,17.92
2018-07-11T20:21:00.998Z,17.97
2018-07-11T20:25:57.788Z,17.89
2018-07-11T20:30:53.332Z,17.82
2018-07-11T20:35:50.195Z,17.83
2018-07-11T20:40:46.113Z,17.83
2018-07-11T20:45:41.990Z,17.87
2018-07-11T20:50:37.951Z,17.78
2018-07-11T20:55:33.808Z,17.86
2018-07-11T21:00:30.099Z,17.85
2018-07-11T21:05:26.884Z,17.83
2018-07-11T21:10:23.346Z,17.79
2018-07-11T21:15:20.565Z,17.89
2018-07-11T21:20:16.079Z,17.85
2018-07-11T21:25:11.968Z,17.76
2018-07-11T21:30:07.784Z,17.80
2018-07-11T21:35:04.115Z,17.90
2018-07-11T21:40:00.570Z,17.82
2018-07-11T21:44:56.633Z,17.79
2018-07-11T21:49:52.472Z,17.86
2018-07-11T21:54:48.121Z,17.85
2018-07-11T21:59:44.414Z,17.72
2018-07-11T22:04:40.120Z,17.74
2018-07-11T22:09:36.087Z,17.78
2018-07-11T22:14:32.366Z,17.72
2018-07-11T22:19:29.414Z,17.67
2018-07-11T22:24:25.590Z,17.65
2018-07-11T22:29:21.335Z,17.59
2018-07-11T22:34:17.691Z,17.49
2018-07-11T22:39:13.718Z,17.44
2018-07-11T22:44:10.644Z,17.51
2018-07-11T22:49:06.280Z,17.54
2018-07-11T22:54:02.445Z,17.45
2018-07-11T22:58:58.353Z,17.48
2018-07-11T23:03:55.247Z,17.33
2018-07-11T23:08:50.839Z,17.36
2018-07-11T23:13:47.636Z,17.22
2018-07-11T23:18:43.302Z,17.24
2018-07-11T23:23:40.302Z,17.22
2018-07-11T23:28:35.775Z,17.12
2018-07-11T23:33:31.614Z,17.06
2018-07-11T23:38:27.012Z,17.01
2018-07-11T23:43:23.124Z,16.96
2018-07-11T23:48:18.912Z,16.89
2018-07-11T23:53:14.704Z,16.86
2018-07-11T23:58:10.419Z,16.74
